Time;durP1;ratioP1;P1;durP2;ratioP2;P2;SDS_P1;SDS_P2;PMS_P1;PMS_P2;Temp;Humidity;BMP_temperature;BMP_pressure;BME280_temperature;BME280_humidity;BME280_pressure;Samples;Min_cycle;Max_cycle;Signal;HPM_P1;HPM_P2
2022/01/06 00:00:15;;;;;;;1.00;0.40;;;;;;;3.79;92.94;100111.81;4951311;28;20047;-69
2022/01/06 00:02:42;;;;;;;0.30;0.20;;;;;;;3.84;92.59;100107.09;4935047;29;20031;-69
2022/01/06 00:05:09;;;;;;;0.38;0.35;;;;;;;3.81;91.57;100118.41;4952609;28;20508;-69
2022/01/06 00:07:34;;;;;;;0.20;0.20;;;;;;;3.76;92.60;100112.47;4952676;28;20578;-69
2022/01/06 00:10:00;;;;;;;2.95;0.60;;;;;;;3.73;93.52;100127.22;4956974;28;20121;-69
2022/01/06 00:12:37;;;;;;;0.20;0.20;;;;;;;3.78;92.17;100131.56;4971189;28;20433;-70
2022/01/06 00:15:23;;;;;;;0.20;0.20;;;;;;;3.53;92.73;100139.38;4971897;28;20109;-70
2022/01/06 00:25:40;;;;;;;0.10;0.10;;;;;;;3.43;92.63;100163.66;4952515;28;20039;-70
2022/01/06 00:28:05;;;;;;;0.30;0.30;;;;;;;3.40;93.97;100171.50;4955596;28;20052;-69
2022/01/06 00:30:31;;;;;;;0.57;0.57;;;;;;;3.41;93.48;100173.84;4971179;28;20035;-69
2022/01/06 00:32:56;;;;;;;0.32;0.30;;;;;;;3.41;93.77;100186.38;4970433;28;20031;-70
2022/01/06 00:35:22;;;;;;;0.10;0.10;;;;;;;3.42;93.51;100193.25;4960356;28;20093;-71
2022/01/06 00:37:47;;;;;;;0.68;0.35;;;;;;;3.45;93.56;100187.28;4959263;28;20049;-69
2022/01/06 00:40:13;;;;;;;0.10;0.10;;;;;;;3.51;93.11;100200.13;4955131;28;20027;-70
2022/01/06 00:42:39;;;;;;;0.80;0.43;;;;;;;3.46;93.43;100202.97;4960016;28;20050;-69
2022/01/06 00:45:05;;;;;;;0.65;0.50;;;;;;;3.47;92.95;100215.16;4953892;28;20041;-70
2022/01/06 00:47:33;;;;;;;0.52;0.25;;;;;;;3.36;93.66;100200.63;4955021;28;20420;-70
2022/01/06 00:49:58;;;;;;;0.95;0.40;;;;;;;3.48;93.00;100213.28;4974020;28;20031;-71
2022/01/06 00:52:24;;;;;;;0.60;0.50;;;;;;;3.39;93.49;100217.81;4970401;28;20467;-69
2022/01/06 00:54:49;;;;;;;0.20;0.20;;;;;;;3.44;93.02;100221.13;4974241;28;20080;-70
2022/01/06 00:57:14;;;;;;;6.03;0.70;;;;;;;3.35;92.66;100223.00;4974776;28;20035;-70
2022/01/06 00:59:40;;;;;;;0.50;0.50;;;;;;;3.16;93.90;100219.91;4974317;28;20041;-70
2022/01/06 01:02:05;;;;;;;0.10;0.10;;;;;;;3.35;93.07;100230.19;4969678;28;20122;-70
2022/01/06 01:04:33;;;;;;;2.38;0.63;;;;;;;3.33;93.08;100227.84;4960024;28;20027;-70
2022/01/06 01:06:59;;;;;;;2.22;0.28;;;;;;;3.22;93.75;100228.50;4957592;28;20555;-70
2022/01/06 01:09:24;;;;;;;0.45;0.20;;;;;;;3.19;93.95;100227.28;4974764;28;20035;-70
2022/01/06 01:11:50;;;;;;;0.10;0.10;;;;;;;3.22;93.34;100231.97;4964386;28;20432;-70
2022/01/06 01:14:26;;;;;;;0.32;0.20;;;;;;;3.26;92.96;100243.53;4965546;28;21502;-70
2022/01/06 01:16:59;;;;;;;0.38;0.30;;;;;;;3.25;93.03;100241.97;4974895;28;20488;-70
2022/01/06 01:19:25;;;;;;;0.10;0.10;;;;;;;3.14;94.15;100253.25;4956154;28;20038;-70
2022/01/06 01:21:51;;;;;;;0.15;0.15;;;;;;;3.12;94.37;100242.13;4973005;28;20065;-70
2022/01/06 01:24:17;;;;;;;0.40;0.40;;;;;;;3.14;94.19;100255.91;4973209;28;20491;-70
2022/01/06 01:26:43;;;;;;;1.55;0.30;;;;;;;3.13;93.37;100249.81;4974272;28;20039;-70
2022/01/06 01:29:13;;;;;;;0.20;0.20;;;;;;;3.08;93.64;100259.84;4972774;28;20106;-70
2022/01/06 01:31:45;;;;;;;2.35;0.85;;;;;;;3.12;93.83;100264.19;4972102;28;20062;-70
2022/01/06 01:34:12;;;;;;;0.10;0.10;;;;;;;3.05;93.09;100269.22;4974667;28;20038;-70
2022/01/06 01:36:37;;;;;;;0.17;0.17;;;;;;;2.97;93.98;100283.28;4974510;28;20039;-70
2022/01/06 01:39:03;;;;;;;0.20;0.20;;;;;;;3.08;93.83;100281.88;4968930;28;20041;-70
2022/01/06 01:41:29;;;;;;;0.10;0.10;;;;;;;2.96;94.06;100294.25;4973488;28;20026;-70
2022/01/06 01:43:55;;;;;;;1.17;0.30;;;;;;;2.93;94.76;100286.88;4961997;28;20460;-70
2022/01/06 01:46:28;;;;;;;0.25;0.20;;;;;;;2.95;94.49;100301.44;4965794;28;20577;-70
2022/01/06 01:51:43;;;;;;;8.82;0.35;;;;;;;2.91;94.48;100313.00;4962067;28;20510;-70
2022/01/06 01:54:09;;;;;;;0.30;0.28;;;;;;;2.78;94.92;100314.72;4964285;28;20062;-70
2022/01/06 01:56:38;;;;;;;2.83;0.82;;;;;;;2.66;95.02;100318.00;4971841;28;20506;-70
2022/01/06 01:59:04;;;;;;;0.10;0.10;;;;;;;2.69;95.80;100330.66;4974108;28;20043;-70
2022/01/06 02:01:29;;;;;;;0.65;0.30;;;;;;;2.67;95.81;100329.41;4972543;28;20046;-70
2022/01/06 02:03:55;;;;;;;0.20;0.20;;;;;;;2.75;95.72;100339.25;4970909;28;20034;-69
2022/01/06 02:06:20;;;;;;;0.30;0.30;;;;;;;2.89;94.16;100341.78;4973170;28;20035;-70
2022/01/06 02:08:46;;;;;;;0.13;0.13;;;;;;;2.87;94.80;100341.28;4956748;28;20046;-70
2022/01/06 02:11:11;;;;;;;1.48;0.43;;;;;;;2.75;94.75;100336.59;4968988;28;20027;-70
2022/01/06 02:13:55;;;;;;;0.63;0.30;;;;;;;2.71;95.03;100338.31;4952826;28;20043;-70
2022/01/06 02:16:26;;;;;;;0.30;0.30;;;;;;;2.65;95.09;100335.00;4970964;28;20066;-70
2022/01/06 02:18:53;;;;;;;0.73;0.30;;;;;;;2.67;95.54;100345.34;4972335;28;20399;-70
2022/01/06 02:21:20;;;;;;;0.45;0.35;;;;;;;2.76;94.98;100340.84;4971899;28;20057;-70
2022/01/06 02:23:46;;;;;;;0.55;0.30;;;;;;;2.69;95.53;100332.53;4967061;28;20821;-70
2022/01/06 02:26:12;;;;;;;0.38;0.38;;;;;;;2.71;94.77;100323.16;4960524;28;20673;-70
2022/01/06 02:28:38;;;;;;;2.33;0.20;;;;;;;2.62;95.75;100329.53;4971588;28;20049;-70
2022/01/06 02:31:03;;;;;;;0.50;0.40;;;;;;;2.54;95.97;100344.38;4970908;28;20030;-69
2022/01/06 02:33:29;;;;;;;0.20;0.20;;;;;;;2.50;96.23;100353.25;4966323;28;20166;-69
2022/01/06 02:35:55;;;;;;;0.10;0.10;;;;;;;2.51;96.54;100350.31;4964819;28;20089;-69
2022/01/06 02:38:21;;;;;;;0.10;0.10;;;;;;;2.52;96.46;100346.56;4971460;28;20495;-69
2022/01/06 02:40:47;;;;;;;0.40;0.20;;;;;;;2.47;96.48;100353.88;4970670;28;20045;-69
2022/01/06 02:43:16;;;;;;;0.47;0.40;;;;;;;2.61;95.40;100352.66;4956893;28;20038;-69
2022/01/06 02:45:43;;;;;;;0.20;0.20;;;;;;;2.44;96.20;100352.63;4972705;28;20054;-69
2022/01/06 02:48:08;;;;;;;0.20;0.20;;;;;;;2.62;95.17;100361.44;4972731;28;20041;-69
2022/01/06 02:50:39;;;;;;;0.20;0.20;;;;;;;2.60;95.52;100360.94;4972997;28;20035;-69
2022/01/06 02:53:05;;;;;;;0.30;0.30;;;;;;;2.51;95.54;100360.16;4966925;28;20045;-68
2022/01/06 02:55:33;;;;;;;0.10;0.10;;;;;;;2.44;95.90;100365.91;4961124;28;20592;-69
2022/01/06 02:57:59;;;;;;;1.10;0.30;;;;;;;2.48;96.36;100376.69;4969447;28;20045;-69
2022/01/06 03:00:24;;;;;;;0.20;0.20;;;;;;;2.43;96.04;100374.97;4961192;28;20035;-69
2022/01/06 03:02:49;;;;;;;0.20;0.20;;;;;;;2.39;95.81;100379.34;4968048;28;20035;-69
2022/01/06 03:05:16;;;;;;;0.52;0.22;;;;;;;2.54;95.58;100383.44;4972219;28;20456;-69
2022/01/06 03:07:42;;;;;;;0.30;0.30;;;;;;;2.56;95.40;100386.56;4968282;28;20407;-69
2022/01/06 03:10:11;;;;;;;0.30;0.30;;;;;;;2.48;95.56;100396.09;4971373;28;20133;-69
2022/01/06 03:12:40;;;;;;;4.65;0.65;;;;;;;2.52;94.65;100401.56;4961292;28;20035;-69
2022/01/06 03:15:10;;;;;;;0.10;0.10;;;;;;;2.62;93.85;100394.09;4961822;28;20043;-69
2022/01/06 03:17:37;;;;;;;0.57;0.57;;;;;;;2.51;94.51;100398.16;4966655;28;20391;-68
2022/01/06 03:20:08;;;;;;;0.20;0.20;;;;;;;2.67;93.56;100398.50;4968217;28;20034;-69
2022/01/06 03:22:33;;;;;;;0.22;0.22;;;;;;;2.65;93.38;100406.00;4961597;28;20085;-69
2022/01/06 03:24:59;;;;;;;0.20;0.20;;;;;;;2.51;93.93;100406.13;4956297;28;20035;-70
2022/01/06 03:27:25;;;;;;;0.20;0.20;;;;;;;2.57;94.27;100412.84;4972854;28;20056;-69
2022/01/06 03:29:50;;;;;;;0.30;0.30;;;;;;;2.47;93.69;100422.97;4964487;28;20039;-68
2022/01/06 03:32:18;;;;;;;4.03;0.40;;;;;;;2.38;95.26;100422.16;4959927;28;20039;-69
2022/01/06 03:34:44;;;;;;;0.30;0.30;;;;;;;2.27;94.97;100426.13;4963101;28;20050;-69
2022/01/06 03:37:11;;;;;;;0.35;0.30;;;;;;;2.25;96.13;100421.13;4950664;28;20034;-69
2022/01/06 03:39:36;;;;;;;0.30;0.30;;;;;;;2.23;95.88;100430.50;4966238;28;20058;-69
2022/01/06 03:42:02;;;;;;;0.20;0.20;;;;;;;2.38;95.21;100443.41;4958016;28;20430;-69
2022/01/06 03:44:27;;;;;;;0.20;0.20;;;;;;;2.38;95.47;100454.78;4963643;28;20038;-69
2022/01/06 03:46:53;;;;;;;0.20;0.20;;;;;;;2.32;95.42;100453.34;4958881;28;20531;-69
2022/01/06 03:49:19;;;;;;;0.57;0.20;;;;;;;2.40;95.12;100452.63;4963618;28;20511;-69
2022/01/06 03:51:44;;;;;;;0.38;0.38;;;;;;;2.21;95.42;100452.03;4967100;28;20039;-69
2022/01/06 03:54:10;;;;;;;0.40;0.40;;;;;;;2.15;95.73;100452.50;4960416;28;20042;-69
2022/01/06 03:56:35;;;;;;;0.68;0.50;;;;;;;2.28;96.07;100462.25;4970091;28;20522;-69
2022/01/06 03:59:01;;;;;;;0.70;0.47;;;;;;;2.20;96.57;100476.25;4967575;28;20038;-69
2022/01/06 04:01:27;;;;;;;0.10;0.10;;;;;;;2.28;96.30;100475.53;4969322;28;20435;-69
2022/01/06 04:03:52;;;;;;;1.92;0.73;;;;;;;2.19;96.39;100493.28;4967332;28;20042;-69
2022/01/06 04:06:18;;;;;;;1.58;0.55;;;;;;;2.12;96.91;100491.06;4969469;28;20066;-69
2022/01/06 04:08:44;;;;;;;0.38;0.38;;;;;;;2.09;96.72;100494.28;4970416;28;20840;-69
2022/01/06 04:11:10;;;;;;;0.40;0.40;;;;;;;2.07;96.90;100490.38;4953931;28;20065;-69
2022/01/06 04:13:36;;;;;;;0.28;0.28;;;;;;;2.06;97.09;100499.44;4963066;28;20070;-69
2022/01/06 04:16:05;;;;;;;0.28;0.28;;;;;;;2.04;97.26;100498.94;4970387;28;20049;-69
2022/01/06 04:18:31;;;;;;;0.65;0.57;;;;;;;1.98;97.70;100506.25;4971432;28;20039;-69
2022/01/06 04:20:56;;;;;;;0.35;0.30;;;;;;;2.04;97.52;100514.88;4970646;28;20034;-69
2022/01/06 04:23:21;;;;;;;0.30;0.25;;;;;;;2.07;98.17;100514.28;4959578;28;20777;-69
2022/01/06 04:25:47;;;;;;;0.20;0.20;;;;;;;2.10;98.18;100519.78;4962713;28;20035;-69
2022/01/06 04:28:12;;;;;;;0.30;0.30;;;;;;;2.14;97.88;100520.75;4970000;28;20034;-69
2022/01/06 04:30:38;;;;;;;0.40;0.40;;;;;;;2.19;98.20;100528.56;4969548;28;20035;-69
2022/01/06 04:33:03;;;;;;;0.68;0.68;;;;;;;2.27;97.58;100524.41;4957065;28;20105;-69
2022/01/06 04:35:29;;;;;;;0.40;0.40;;;;;;;2.29;97.58;100527.53;4970880;28;20043;-69
2022/01/06 04:37:54;;;;;;;0.30;0.30;;;;;;;2.30;97.80;100526.47;4970991;28;20030;-69
2022/01/06 04:40:19;;;;;;;0.30;0.30;;;;;;;2.30;97.95;100534.44;4966011;28;20493;-69
2022/01/06 04:42:45;;;;;;;0.68;0.50;;;;;;;2.31;97.95;100544.75;4954032;28;20034;-69
2022/01/06 04:45:10;;;;;;;3.30;0.50;;;;;;;2.30;97.53;100555.69;4967828;28;20456;-69
2022/01/06 04:47:39;;;;;;;1.13;0.73;;;;;;;2.33;97.46;100555.06;4962674;28;20074;-69
2022/01/06 04:50:06;;;;;;;0.30;0.30;;;;;;;2.33;98.10;100568.34;4967439;28;20043;-69
2022/01/06 04:52:31;;;;;;;0.38;0.38;;;;;;;2.35;97.87;100563.53;4970080;28;20094;-69
2022/01/06 04:54:56;;;;;;;0.30;0.30;;;;;;;2.53;96.59;100576.66;4969305;28;20047;-69
2022/01/06 04:57:22;;;;;;;0.22;0.22;;;;;;;2.52;96.21;100566.28;4953352;28;20039;-69
2022/01/06 04:59:47;;;;;;;1.02;0.47;;;;;;;2.54;95.75;100566.78;4970397;28;20146;-69
2022/01/06 05:02:13;;;;;;;0.17;0.17;;;;;;;2.42;96.60;100574.53;4968882;28;20046;-69
2022/01/06 05:04:38;;;;;;;0.10;0.10;;;;;;;2.34;97.14;100578.69;4967801;28;20491;-69
2022/01/06 05:07:04;;;;;;;0.32;0.15;;;;;;;2.27;97.09;100569.56;4968382;28;20078;-69
2022/01/06 05:09:29;;;;;;;0.73;0.73;;;;;;;2.31;97.04;100573.19;4971788;28;20057;-69
2022/01/06 05:11:55;;;;;;;1.45;0.40;;;;;;;2.40;95.99;100571.41;4969205;28;20431;-69
2022/01/06 05:14:20;;;;;;;1.65;0.40;;;;;;;2.27;96.66;100577.53;4971021;28;20042;-69
2022/01/06 05:16:45;;;;;;;0.20;0.20;;;;;;;2.35;96.34;100582.91;4971111;28;20038;-69
2022/01/06 05:19:11;;;;;;;0.30;0.30;;;;;;;2.34;96.24;100583.22;4969681;28;20570;-69
2022/01/06 05:21:37;;;;;;;0.20;0.20;;;;;;;2.26;96.19;100573.31;4950012;28;20034;-69
2022/01/06 05:24:10;;;;;;;0.30;0.30;;;;;;;2.25;95.75;100585.81;4964840;28;20082;-69
2022/01/06 05:26:38;;;;;;;0.57;0.32;;;;;;;2.23;96.61;100587.97;4950153;29;20102;-69
2022/01/06 05:29:04;;;;;;;0.43;0.40;;;;;;;2.20;96.16;100593.91;4954462;28;20043;-69
2022/01/06 05:31:31;;;;;;;0.17;0.17;;;;;;;2.08;96.58;100606.13;4966582;28;20162;-69
2022/01/06 05:33:56;;;;;;;0.17;0.17;;;;;;;2.15;96.97;100607.28;4968528;28;20552;-69
2022/01/06 05:36:24;;;;;;;0.30;0.30;;;;;;;2.07;96.66;100607.22;4969817;28;20035;-70
2022/01/06 05:38:50;;;;;;;0.30;0.30;;;;;;;2.04;96.88;100615.75;4971690;28;20035;-69
2022/01/06 05:41:15;;;;;;;0.52;0.32;;;;;;;2.11;96.97;100624.88;4963937;28;20039;-69
2022/01/06 05:43:41;;;;;;;0.20;0.20;;;;;;;2.17;96.41;100630.91;4955243;28;20091;-69
2022/01/06 05:46:06;;;;;;;0.30;0.30;;;;;;;2.10;96.17;100635.81;4970734;28;20484;-69
2022/01/06 05:48:34;;;;;;;0.30;0.30;;;;;;;2.12;96.68;100628.34;4974619;28;20093;-69
2022/01/06 05:50:59;;;;;;;4.07;0.30;;;;;;;2.07;96.54;100639.84;4972073;28;20035;-69
2022/01/06 05:53:25;;;;;;;0.57;0.30;;;;;;;2.01;96.72;100648.22;4968335;28;20053;-69
2022/01/06 05:55:50;;;;;;;0.30;0.30;;;;;;;1.97;96.56;100657.88;4972433;28;20035;-69
2022/01/06 05:58:16;;;;;;;0.82;0.47;;;;;;;1.94;97.21;100656.59;4973163;28;20039;-69
2022/01/06 06:00:43;;;;;;;1.73;0.60;;;;;;;1.96;97.07;100653.63;4968318;28;20054;-69
2022/01/06 06:03:08;;;;;;;0.30;0.30;;;;;;;1.94;96.69;100659.25;4966693;28;20057;-69
2022/01/06 06:05:34;;;;;;;0.60;0.45;;;;;;;1.91;96.88;100673.13;4967475;28;20043;-69
2022/01/06 06:08:03;;;;;;;4.13;0.43;;;;;;;1.91;97.34;100664.38;4978863;28;20038;-69
2022/01/06 06:10:28;;;;;;;0.95;0.22;;;;;;;1.78;97.50;100668.63;4961205;28;20047;-69
2022/01/06 06:12:55;;;;;;;0.60;0.43;;;;;;;1.82;97.24;100673.00;4973262;28;20077;-69
2022/01/06 06:15:27;;;;;;;0.50;0.50;;;;;;;1.86;97.45;100680.41;4964449;28;20045;-69
2022/01/06 06:17:52;;;;;;;0.20;0.20;;;;;;;1.82;97.55;100688.94;4964630;28;20066;-69
2022/01/06 06:20:18;;;;;;;0.35;0.30;;;;;;;1.86;97.86;100686.47;4965381;28;20069;-69
2022/01/06 06:22:47;;;;;;;1.88;0.73;;;;;;;1.83;97.79;100679.13;4972947;28;20034;-69
2022/01/06 06:25:15;;;;;;;0.60;0.45;;;;;;;1.78;97.11;100685.31;4971914;28;20048;-70
2022/01/06 06:27:40;;;;;;;1.08;0.40;;;;;;;1.74;97.31;100686.97;4965219;28;20070;-69
2022/01/06 06:30:26;;;;;;;1.05;0.55;;;;;;;1.73;97.89;100689.94;4973710;28;20061;-70
2022/01/06 06:32:53;;;;;;;1.10;0.38;;;;;;;1.63;97.33;100693.56;4948429;29;20081;-70
2022/01/06 06:35:19;;;;;;;0.30;0.30;;;;;;;1.60;98.31;100702.13;4951554;29;20058;-69
2022/01/06 06:37:44;;;;;;;0.60;0.45;;;;;;;1.59;98.00;100703.19;4938036;29;20047;-69
2022/01/06 06:40:11;;;;;;;0.38;0.28;;;;;;;1.60;97.93;100718.03;4949284;29;20346;-70
2022/01/06 06:42:36;;;;;;;1.33;0.55;;;;;;;1.60;97.81;100711.94;4945074;29;20077;-70
2022/01/06 06:45:02;;;;;;;0.55;0.47;;;;;;;1.59;98.16;100713.81;4934232;29;20074;-69
2022/01/06 06:47:27;;;;;;;2.83;0.88;;;;;;;1.67;96.95;100707.81;4949552;28;20062;-69
2022/01/06 06:49:56;;;;;;;1.50;0.98;;;;;;;1.54;97.73;100719.22;4948295;28;20051;-69
2022/01/06 06:52:22;;;;;;;0.30;0.30;;;;;;;1.54;98.17;100716.56;4947974;29;20122;-69
2022/01/06 06:54:48;;;;;;;1.38;0.47;;;;;;;1.59;98.30;100710.34;4948807;29;20117;-70
2022/01/06 06:57:14;;;;;;;3.33;0.88;;;;;;;1.50;98.50;100722.72;4945634;29;20139;-70
2022/01/06 06:59:39;;;;;;;0.63;0.63;;;;;;;1.52;98.67;100731.97;4950528;29;20207;-70
2022/01/06 07:02:05;;;;;;;1.23;0.57;;;;;;;1.54;98.92;100737.78;4938923;29;20114;-71
2022/01/06 07:04:31;;;;;;;1.55;0.68;;;;;;;1.50;99.07;100739.44;4943323;29;20070;-70
2022/01/06 07:06:56;;;;;;;0.35;0.35;;;;;;;1.49;99.21;100750.34;4946172;29;20558;-70
2022/01/06 07:09:22;;;;;;;1.20;0.55;;;;;;;1.45;99.40;100750.13;4953783;28;20117;-70
2022/01/06 07:11:47;;;;;;;1.65;0.70;;;;;;;1.46;99.18;100759.66;4968903;28;20050;-68
2022/01/06 07:14:13;;;;;;;8.80;0.68;;;;;;;1.41;99.53;100757.13;4969178;28;20406;-68
2022/01/06 07:16:38;;;;;;;0.90;0.60;;;;;;;1.40;99.47;100765.34;4962670;28;20039;-68
2022/01/06 07:19:03;;;;;;;0.70;0.52;;;;;;;1.38;99.12;100757.69;4979938;28;20030;-68
2022/01/06 07:21:29;;;;;;;0.40;0.40;;;;;;;1.38;99.60;100764.84;4969752;28;20046;-68
2022/01/06 07:23:55;;;;;;;0.43;0.43;;;;;;;1.34;100.00;100756.69;4964705;28;20568;-69
2022/01/06 07:26:20;;;;;;;0.77;0.40;;;;;;;1.32;99.68;100764.13;4970720;28;20112;-69
2022/01/06 07:28:46;;;;;;;2.22;0.63;;;;;;;1.39;99.63;100764.56;4964780;28;20050;-69
2022/01/06 07:31:11;;;;;;;0.60;0.60;;;;;;;1.36;100.00;100762.47;4963401;28;20134;-69
2022/01/06 07:33:37;;;;;;;1.02;0.95;;;;;;;1.36;99.96;100759.84;4969384;28;20035;-69
2022/01/06 07:36:07;;;;;;;1.20;1.10;;;;;;;1.41;100.00;100761.63;4969155;28;20523;-69
2022/01/06 07:38:32;;;;;;;1.98;0.80;;;;;;;1.42;100.00;100760.53;4967440;28;20416;-70
2022/01/06 07:40:58;;;;;;;0.77;0.60;;;;;;;1.41;100.00;100762.41;4970892;28;20110;-69
2022/01/06 07:43:24;;;;;;;0.80;0.80;;;;;;;1.41;100.00;100766.94;4965976;28;20085;-70
2022/01/06 07:45:52;;;;;;;1.23;0.35;;;;;;;1.44;100.00;100771.63;4970354;28;20108;-70
2022/01/06 07:48:25;;;;;;;0.35;0.35;;;;;;;1.41;100.00;100778.34;4963692;28;20078;-69
2022/01/06 07:50:51;;;;;;;1.65;0.95;;;;;;;1.44;100.00;100793.66;4953741;28;20050;-70
2022/01/06 07:53:17;;;;;;;2.30;0.90;;;;;;;1.47;100.00;100795.72;4968878;28;20046;-70
2022/01/06 07:55:42;;;;;;;1.10;1.00;;;;;;;1.46;100.00;100796.81;4968115;28;20035;-70
2022/01/06 07:58:07;;;;;;;0.93;0.88;;;;;;;1.49;100.00;100804.16;4970068;28;20039;-70
2022/01/06 08:00:33;;;;;;;1.40;0.88;;;;;;;1.46;100.00;100806.63;4953013;28;20035;-70
2022/01/06 08:02:58;;;;;;;0.85;0.82;;;;;;;1.47;100.00;100813.50;4965035;28;20082;-70
2022/01/06 08:05:26;;;;;;;0.50;0.50;;;;;;;1.47;100.00;100808.22;4966793;28;20042;-70
2022/01/06 08:07:52;;;;;;;0.40;0.38;;;;;;;1.53;100.00;100817.66;4970025;28;20113;-69
2022/01/06 08:10:18;;;;;;;0.88;0.70;;;;;;;1.49;100.00;100821.97;4968960;28;20054;-70
2022/01/06 08:12:44;;;;;;;1.60;0.75;;;;;;;1.55;100.00;100829.53;4970269;28;20043;-69
2022/01/06 08:15:10;;;;;;;0.57;0.43;;;;;;;1.58;100.00;100828.19;4967258;28;20054;-70
2022/01/06 08:17:37;;;;;;;1.58;0.70;;;;;;;1.61;100.00;100827.59;4957909;28;20488;-70
2022/01/06 08:20:05;;;;;;;0.52;0.52;;;;;;;1.61;100.00;100827.59;4962864;28;20041;-70
2022/01/06 08:22:31;;;;;;;0.60;0.60;;;;;;;1.61;100.00;100833.69;4963350;28;20113;-70
2022/01/06 08:24:57;;;;;;;4.53;0.70;;;;;;;1.63;100.00;100836.03;4954585;28;20531;-70
2022/01/06 08:27:23;;;;;;;4.45;0.90;;;;;;;1.60;100.00;100834.78;4956926;28;20066;-70
2022/01/06 08:29:51;;;;;;;0.90;0.60;;;;;;;1.60;100.00;100834.78;4979555;28;20045;-70
2022/01/06 08:32:19;;;;;;;0.98;0.63;;;;;;;1.62;100.00;100831.84;4966310;28;20038;-70
2022/01/06 08:34:45;;;;;;;0.60;0.60;;;;;;;1.65;100.00;100837.34;4965520;28;20047;-70
2022/01/06 08:37:10;;;;;;;0.68;0.68;;;;;;;1.67;100.00;100834.38;4967035;28;20122;-70
2022/01/06 08:39:36;;;;;;;0.63;0.63;;;;;;;1.61;100.00;100840.84;4957222;28;20034;-70
2022/01/06 08:42:02;;;;;;;0.63;0.63;;;;;;;1.62;100.00;100842.44;4936588;28;20024;-70
2022/01/06 08:44:28;;;;;;;1.15;0.93;;;;;;;1.63;100.00;100847.47;4955882;28;21591;-70
2022/01/06 08:46:53;;;;;;;0.52;0.38;;;;;;;1.64;100.00;100857.00;4961563;28;20122;-70
2022/01/06 08:49:22;;;;;;;0.80;0.80;;;;;;;1.67;100.00;100859.06;4960580;28;20031;-70
2022/01/06 08:51:48;;;;;;;0.52;0.50;;;;;;;1.67;100.00;100859.06;4951543;28;20173;-70
2022/01/06 08:54:16;;;;;;;0.82;0.52;;;;;;;1.71;100.00;100859.28;4967314;28;20050;-70
2022/01/06 08:56:41;;;;;;;0.80;0.75;;;;;;;1.72;100.00;100858.97;4975865;28;20133;-70
2022/01/06 08:59:07;;;;;;;0.70;0.70;;;;;;;1.75;100.00;100861.06;4953133;28;20070;-70
2022/01/06 09:01:33;;;;;;;4.90;1.10;;;;;;;1.80;100.00;100865.50;4953880;28;20418;-71
2022/01/06 09:03:58;;;;;;;6.50;1.65;;;;;;;1.84;100.00;100871.78;4960986;28;20053;-70
2022/01/06 09:06:24;;;;;;;0.93;0.90;;;;;;;1.88;100.00;100866.72;4961092;28;20030;-71
2022/01/06 09:08:49;;;;;;;1.35;1.00;;;;;;;1.95;100.00;100862.59;4974825;28;20255;-71
2022/01/06 09:11:15;;;;;;;0.57;0.57;;;;;;;2.06;100.00;100871.94;4958733;28;20038;-71
2022/01/06 09:13:41;;;;;;;1.20;0.90;;;;;;;2.12;100.00;100876.09;4961935;28;20034;-71
2022/01/06 09:16:08;;;;;;;2.25;1.00;;;;;;;2.20;100.00;100875.41;4968836;28;20062;-71
2022/01/06 09:18:35;;;;;;;2.60;0.68;;;;;;;2.29;100.00;100868.34;4972732;28;20047;-71
2022/01/06 09:21:00;;;;;;;0.70;0.70;;;;;;;2.41;100.00;100870.50;4974268;28;20583;-71
2022/01/06 09:23:26;;;;;;;1.65;0.70;;;;;;;2.49;100.00;100873.28;4966189;28;20034;-71
2022/01/06 09:25:51;;;;;;;0.63;0.40;;;;;;;2.55;100.00;100873.97;4963409;28;20157;-70
2022/01/06 09:28:20;;;;;;;0.45;0.38;;;;;;;2.58;100.00;100871.50;4960409;28;20070;-71
2022/01/06 09:30:50;;;;;;;1.15;1.00;;;;;;;2.65;100.00;100882.50;4962133;28;20035;-71
2022/01/06 09:33:18;;;;;;;3.10;0.90;;;;;;;2.72;100.00;100882.13;4964233;28;20035;-71
2022/01/06 09:35:48;;;;;;;2.38;0.77;;;;;;;2.76;100.00;100888.44;4963489;28;20038;-71
2022/01/06 09:38:14;;;;;;;0.77;0.60;;;;;;;2.85;100.00;100880.53;4960098;28;20051;-71
2022/01/06 09:40:41;;;;;;;2.85;0.88;;;;;;;2.92;100.00;100903.00;4960405;28;20102;-71
2022/01/06 09:43:07;;;;;;;2.63;0.95;;;;;;;3.02;100.00;100905.41;4959761;28;20506;-71
2022/01/06 09:45:35;;;;;;;1.75;0.85;;;;;;;3.04;100.00;100905.91;4959377;28;20042;-70
2022/01/06 09:48:01;;;;;;;6.28;0.88;;;;;;;3.11;100.00;100898.34;4957885;28;20147;-70
2022/01/06 09:50:27;;;;;;;1.27;0.50;;;;;;;3.17;100.00;100906.97;4962203;28;20064;-70
2022/01/06 09:52:52;;;;;;;0.52;0.52;;;;;;;3.21;100.00;100900.78;4974247;28;20414;-70
2022/01/06 09:55:19;;;;;;;1.30;0.90;;;;;;;3.28;100.00;100901.16;4960222;28;20454;-70
2022/01/06 09:57:59;;;;;;;1.73;1.10;;;;;;;3.28;100.00;100906.47;4973621;28;20024;-70
2022/01/06 10:00:28;;;;;;;1.70;0.98;;;;;;;3.35;100.00;100917.47;4958273;28;20061;-70
2022/01/06 10:02:57;;;;;;;1.83;0.90;;;;;;;3.35;100.00;100904.16;4961612;28;20121;-70
2022/01/06 10:05:24;;;;;;;1.90;1.00;;;;;;;3.40;100.00;100905.94;4958777;28;20041;-69
2022/01/06 10:07:53;;;;;;;4.28;0.90;;;;;;;3.50;100.00;100898.50;4956753;28;20122;-69
2022/01/06 10:10:24;;;;;;;1.60;0.85;;;;;;;3.52;100.00;100906.97;4973986;28;20041;-70
2022/01/06 10:12:58;;;;;;;1.85;1.15;;;;;;;3.57;99.96;100909.53;4959102;28;20376;-70
2022/01/06 10:15:26;;;;;;;0.95;0.68;;;;;;;3.62;100.00;100903.28;4960760;28;20038;-70
2022/01/06 10:17:52;;;;;;;4.35;0.70;;;;;;;3.66;100.00;100906.91;4960116;28;20060;-70
2022/01/06 10:20:20;;;;;;;1.40;0.77;;;;;;;3.75;99.82;100905.13;4958806;28;20152;-70
2022/01/06 10:22:57;;;;;;;1.25;0.75;;;;;;;3.82;99.67;100910.00;4958963;28;20126;-70
2022/01/06 10:25:26;;;;;;;1.15;0.98;;;;;;;4.14;97.42;100912.44;4959076;28;20117;-70
2022/01/06 10:27:56;;;;;;;0.80;0.32;;;;;;;4.10;97.87;100906.13;4959802;28;20069;-70
2022/01/06 10:30:23;;;;;;;0.43;0.43;;;;;;;4.24;97.25;100914.84;4970218;28;20046;-70
2022/01/06 10:32:49;;;;;;;0.90;0.55;;;;;;;4.44;95.21;100912.41;4966638;28;20803;-70
2022/01/06 10:35:21;;;;;;;1.05;0.90;;;;;;;4.29;96.25;100906.69;4967412;28;20161;-70
2022/01/06 10:37:48;;;;;;;4.43;1.02;;;;;;;4.38;96.22;100912.84;4963177;28;20047;-70
2022/01/06 10:40:22;;;;;;;0.70;0.70;;;;;;;4.57;94.87;100922.19;4966481;28;20046;-70
2022/01/06 10:42:50;;;;;;;0.75;0.43;;;;;;;4.40;95.50;100919.44;4967072;28;20424;-70
2022/01/06 10:45:25;;;;;;;0.55;0.50;;;;;;;4.41;96.06;100906.91;4959991;28;20034;-70
2022/01/06 10:47:55;;;;;;;1.60;1.13;;;;;;;4.44;95.39;100916.97;4964752;28;20141;-70
2022/01/06 10:50:25;;;;;;;1.77;0.98;;;;;;;4.35;95.75;100916.94;4967111;28;20766;-70
2022/01/06 10:52:57;;;;;;;2.15;0.60;;;;;;;4.29;96.09;100926.16;4968252;28;20466;-70
2022/01/06 10:55:27;;;;;;;0.50;0.50;;;;;;;4.49;95.05;100916.84;4957864;28;20049;-70
2022/01/06 10:58:20;;;;;;;0.73;0.55;;;;;;;4.32;95.46;100914.88;4958525;28;20388;-70
2022/01/06 11:00:52;;;;;;;6.22;0.95;;;;;;;4.34;95.51;100917.22;4960898;28;20047;-70
2022/01/06 11:03:29;;;;;;;0.60;0.60;;;;;;;4.31;95.90;100921.31;4956625;28;20038;-70
2022/01/06 11:05:56;;;;;;;1.23;1.00;;;;;;;4.41;95.44;100929.00;4964004;28;20101;-70
2022/01/06 11:08:32;;;;;;;0.63;0.63;;;;;;;4.38;95.50;100929.63;4960004;28;20114;-71
2022/01/06 11:13:41;;;;;;;5.45;0.55;;;;;;;4.56;94.41;100936.63;4963211;28;20396;-70
2022/01/06 11:16:08;;;;;;;0.73;0.60;;;;;;;4.58;94.55;100931.78;4963126;28;20129;-70
2022/01/06 11:18:38;;;;;;;0.90;0.73;;;;;;;4.61;94.26;100933.03;4961080;28;20041;-71
2022/01/06 11:21:05;;;;;;;0.47;0.47;;;;;;;4.47;94.71;100930.44;4957465;28;20452;-71
2022/01/06 11:23:31;;;;;;;0.52;0.50;;;;;;;4.57;94.56;100937.41;4958381;28;20527;-71
2022/01/06 11:26:06;;;;;;;0.88;0.70;;;;;;;4.58;94.30;100933.66;4964264;28;20056;-70
2022/01/06 11:28:32;;;;;;;3.70;0.52;;;;;;;4.66;93.56;100940.91;4969363;28;20026;-71
2022/01/06 11:31:12;;;;;;;1.45;0.95;;;;;;;4.58;92.99;100936.31;4959623;28;20081;-70
2022/01/06 11:33:42;;;;;;;0.40;0.40;;;;;;;4.74;92.21;100944.69;4963181;28;20583;-70
2022/01/06 11:36:21;;;;;;;0.70;0.30;;;;;;;4.71;92.72;100946.09;4962209;28;20096;-70
2022/01/06 11:38:49;;;;;;;0.77;0.60;;;;;;;4.81;91.84;100939.69;4959364;28;20659;-71
2022/01/06 11:41:15;;;;;;;2.13;0.77;;;;;;;4.78;92.03;100943.00;4967470;28;21451;-71
2022/01/06 11:43:44;;;;;;;1.38;0.75;;;;;;;4.72;92.89;100942.34;4956044;28;20039;-72